createdAt,value
2022-11-17T00:01:51.781Z,1.33
2022-11-17T00:04:18.601Z,1.25
2022-11-17T00:06:45.419Z,1.33
2022-11-17T00:09:17.381Z,1.13
2022-11-17T00:12:03.764Z,1.30
2022-11-17T00:14:33.341Z,1.10
2022-11-17T00:17:01.234Z,1.05
2022-11-17T00:19:46.463Z,1.00
2022-11-17T00:22:13.106Z,1.02
2022-11-17T00:24:39.679Z,1.30
2022-11-17T00:27:06.500Z,1.27
2022-11-17T00:29:36.240Z,1.10
2022-11-17T00:32:23.790Z,1.27
2022-11-17T00:34:50.350Z,0.93
2022-11-17T00:37:17.150Z,1.05
2022-11-17T00:39:43.746Z,1.10
2022-11-17T00:42:10.330Z,1.30
2022-11-17T00:44:36.964Z,1.20
2022-11-17T00:47:03.565Z,1.08
2022-11-17T00:49:30.145Z,1.10
2022-11-17T00:51:57.821Z,1.17
2022-11-17T00:54:24.766Z,1.23
2022-11-17T00:56:51.716Z,1.27
2022-11-17T00:59:18.305Z,1.00
2022-11-17T01:01:45.948Z,1.17
2022-11-17T01:04:14.565Z,1.17
2022-11-17T01:06:49.180Z,1.35
2022-11-17T01:09:21.016Z,1.15
2022-11-17T01:11:50.487Z,1.20
2022-11-17T01:14:25.390Z,1.00
2022-11-17T01:16:53.018Z,1.15
2022-11-17T01:19:20.724Z,0.95
2022-11-17T01:21:47.538Z,1.20
2022-11-17T01:24:16.375Z,1.15
2022-11-17T01:26:44.363Z,1.35
2022-11-17T01:29:17.048Z,1.30
2022-11-17T01:31:45.423Z,1.10
2022-11-17T01:34:12.260Z,1.20
2022-11-17T01:37:00.666Z,1.40
2022-11-17T01:39:28.971Z,1.10
2022-11-17T01:41:56.199Z,1.10
2022-11-17T01:44:53.786Z,1.13
2022-11-17T01:47:45.306Z,1.10
2022-11-17T01:50:26.656Z,1.20
2022-11-17T01:52:56.612Z,1.10
2022-11-17T01:55:26.085Z,1.00
2022-11-17T01:58:02.230Z,1.10
2022-11-17T02:00:29.579Z,0.93
2022-11-17T02:02:56.510Z,1.20
2022-11-17T02:05:32.092Z,1.17
2022-11-17T02:08:01.165Z,0.90
2022-11-17T02:10:30.935Z,1.13
2022-11-17T02:12:58.942Z,1.20
2022-11-17T02:15:26.678Z,1.05
2022-11-17T02:17:54.189Z,1.10
2022-11-17T02:20:40.374Z,1.00
2022-11-17T02:23:35.255Z,1.10
2022-11-17T02:26:19.861Z,1.05
2022-11-17T02:29:19.482Z,0.90
2022-11-17T02:32:10.239Z,1.00
2022-11-17T02:35:03.529Z,0.90
2022-11-17T02:37:38.122Z,1.00
2022-11-17T02:40:07.714Z,1.00
2022-11-17T02:42:58.565Z,1.30
2022-11-17T02:45:42.132Z,1.30
2022-11-17T02:48:15.384Z,1.20
2022-11-17T02:50:45.126Z,1.38
2022-11-17T02:53:12.864Z,1.27
2022-11-17T02:55:39.404Z,1.30
2022-11-17T02:58:13.579Z,1.30
2022-11-17T03:01:03.368Z,1.13
2022-11-17T03:03:32.884Z,1.20
2022-11-17T03:06:22.354Z,1.20
2022-11-17T03:08:54.901Z,1.00
2022-11-17T03:11:27.305Z,1.05
2022-11-17T03:14:07.160Z,1.00
2022-11-17T03:16:33.662Z,1.30
2022-11-17T03:19:27.552Z,1.20
2022-11-17T03:22:12.834Z,1.40
2022-11-17T03:24:45.198Z,1.27
2022-11-17T03:27:40.283Z,1.20
2022-11-17T03:30:09.315Z,1.20
2022-11-17T03:32:38.567Z,1.05
2022-11-17T03:35:10.040Z,1.15
2022-11-17T03:37:42.069Z,1.40
2022-11-17T03:40:11.266Z,1.40
2022-11-17T03:42:42.196Z,1.30
2022-11-17T03:45:18.741Z,1.10
2022-11-17T03:47:46.825Z,1.20
2022-11-17T03:50:27.880Z,1.40
2022-11-17T03:52:54.787Z,1.30
2022-11-17T03:55:30.688Z,1.35
2022-11-17T03:58:05.043Z,1.25
2022-11-17T04:00:34.767Z,1.27
2022-11-17T04:03:01.580Z,1.25
2022-11-17T04:05:28.502Z,1.27
2022-11-17T04:07:55.167Z,1.20
2022-11-17T04:10:25.721Z,1.27
2022-11-17T04:13:11.992Z,1.30
2022-11-17T04:15:56.918Z,1.50
2022-11-17T04:18:23.936Z,1.20
2022-11-17T04:20:52.964Z,1.30
2022-11-17T04:23:20.061Z,1.25
2022-11-17T04:26:07.861Z,1.38
2022-11-17T04:28:38.964Z,1.17
2022-11-17T04:31:11.593Z,1.45
2022-11-17T04:33:40.771Z,1.52
2022-11-17T04:36:07.828Z,1.40
2022-11-17T04:38:34.723Z,1.10
2022-11-17T04:41:21.835Z,1.30
2022-11-17T04:43:48.407Z,1.27
2022-11-17T04:46:16.662Z,1.27
2022-11-17T04:48:43.851Z,1.13
2022-11-17T04:51:11.081Z,1.42
2022-11-17T04:53:38.313Z,1.42
2022-11-17T04:56:05.897Z,1.33
2022-11-17T04:58:32.962Z,1.17
2022-11-17T05:01:14.596Z,1.48
2022-11-17T05:03:42.275Z,1.35
2022-11-17T05:06:14.237Z,1.02
2022-11-17T05:08:41.659Z,1.52
2022-11-17T05:11:28.176Z,1.00
2022-11-17T05:13:55.288Z,1.20
2022-11-17T05:16:41.276Z,1.50
2022-11-17T05:19:11.253Z,1.30
2022-11-17T05:21:37.903Z,1.40
2022-11-17T05:24:04.927Z,1.05
2022-11-17T05:26:33.992Z,1.20
2022-11-17T05:29:02.989Z,1.10
2022-11-17T05:31:30.248Z,1.17
2022-11-17T05:33:57.589Z,0.90
2022-11-17T05:36:25.994Z,1.20
2022-11-17T05:38:52.777Z,1.15
2022-11-17T05:41:20.555Z,1.25
2022-11-17T05:43:47.436Z,1.27
2022-11-17T05:46:14.069Z,1.05
2022-11-17T05:48:40.668Z,1.17
2022-11-17T05:51:07.500Z,1.02
2022-11-17T05:53:34.414Z,1.15
2022-11-17T05:56:19.966Z,1.10
2022-11-17T05:58:50.291Z,1.00
2022-11-17T06:01:18.930Z,0.93
2022-11-17T06:03:53.896Z,1.40
2022-11-17T06:06:21.447Z,1.10
2022-11-17T06:08:48.109Z,1.38
2022-11-17T06:11:16.878Z,1.15
2022-11-17T06:13:43.437Z,1.02
2022-11-17T06:16:14.206Z,1.00
2022-11-17T06:18:46.621Z,0.90
2022-11-17T06:21:15.756Z,0.90
2022-11-17T06:23:43.981Z,1.23
2022-11-17T06:26:11.604Z,1.23
2022-11-17T06:28:41.982Z,1.10
2022-11-17T06:31:08.845Z,1.33
2022-11-17T06:33:37.550Z,1.00
2022-11-17T06:36:06.925Z,0.95
2022-11-17T06:38:35.775Z,1.20
2022-11-17T06:41:11.510Z,1.08
2022-11-17T06:43:38.861Z,1.10
2022-11-17T06:46:05.962Z,1.20
2022-11-17T06:48:35.734Z,1.13
2022-11-17T06:51:04.756Z,1.25
2022-11-17T06:53:34.066Z,1.08
2022-11-17T06:56:01.924Z,1.02
2022-11-17T06:58:28.740Z,1.00
2022-11-17T07:01:05.773Z,1.20
2022-11-17T07:03:35.037Z,1.10
2022-11-17T07:06:02.526Z,1.17
2022-11-17T07:08:29.999Z,0.88
2022-11-17T07:11:02.081Z,1.20
2022-11-17T07:13:28.862Z,1.00
2022-11-17T07:15:55.485Z,1.30
2022-11-17T07:18:22.123Z,1.20
2022-11-17T07:20:48.765Z,1.20
2022-11-17T07:23:15.416Z,1.17
2022-11-17T07:25:42.050Z,1.00
2022-11-17T07:28:08.633Z,1.25
2022-11-17T07:30:36.200Z,1.58
2022-11-17T07:33:03.029Z,1.10
2022-11-17T07:35:29.703Z,1.58
2022-11-17T07:38:01.343Z,1.25
2022-11-17T07:40:29.330Z,1.73
2022-11-17T07:42:56.158Z,1.42
2022-11-17T07:45:27.367Z,1.30
2022-11-17T07:47:59.072Z,1.50
2022-11-17T07:50:26.701Z,1.20
2022-11-17T07:52:55.072Z,1.38
2022-11-17T07:55:22.804Z,1.30
2022-11-17T07:58:00.415Z,1.30
2022-11-17T08:00:29.414Z,1.40
2022-11-17T08:02:56.246Z,1.25
2022-11-17T08:05:23.141Z,1.70
2022-11-17T08:07:57.259Z,1.40
2022-11-17T08:10:27.032Z,1.73
2022-11-17T08:12:54.564Z,1.40
2022-11-17T08:15:22.192Z,1.50
2022-11-17T08:17:56.615Z,1.67
2022-11-17T08:20:24.333Z,1.80
2022-11-17T08:22:52.311Z,2.00
2022-11-17T08:25:24.278Z,1.58
2022-11-17T08:27:55.013Z,1.77
2022-11-17T08:30:22.400Z,1.70
2022-11-17T08:32:51.992Z,1.50
2022-11-17T08:35:21.404Z,1.55
2022-11-17T08:37:48.216Z,2.00
2022-11-17T08:40:15.768Z,1.42
2022-11-17T08:42:42.308Z,1.50
2022-11-17T08:45:09.862Z,1.92
2022-11-17T08:47:37.483Z,1.80
2022-11-17T08:50:06.297Z,1.70
2022-11-17T08:52:32.947Z,1.85
2022-11-17T08:54:59.645Z,1.70
2022-11-17T08:57:26.281Z,1.80
2022-11-17T08:59:52.886Z,1.80
2022-11-17T09:02:19.451Z,1.90
2022-11-17T09:04:46.814Z,1.83
2022-11-17T09:07:13.699Z,1.90
2022-11-17T09:09:40.420Z,1.55
2022-11-17T09:12:07.457Z,1.75
2022-11-17T09:14:34.023Z,1.60
2022-11-17T09:17:00.667Z,1.60
2022-11-17T09:19:27.360Z,1.73
2022-11-17T09:21:53.968Z,1.60
2022-11-17T09:24:20.506Z,1.90
2022-11-17T09:26:47.132Z,1.75
2022-11-17T09:29:13.726Z,1.80
2022-11-17T09:31:40.417Z,1.73
2022-11-17T09:34:07.316Z,1.65
2022-11-17T09:36:34.035Z,1.58
2022-11-17T09:39:01.032Z,1.60
2022-11-17T09:41:41.218Z,1.70
2022-11-17T09:44:30.931Z,1.75
2022-11-17T09:47:06.088Z,1.60
2022-11-17T09:49:41.786Z,1.60
2022-11-17T09:52:53.357Z,1.80
2022-11-17T09:55:33.893Z,1.58
2022-11-17T09:58:34.916Z,1.67
2022-11-17T10:01:02.166Z,1.55
2022-11-17T10:03:41.950Z,1.38
2022-11-17T10:06:15.905Z,1.67
2022-11-17T10:09:03.162Z,1.58
2022-11-17T10:11:41.985Z,1.73
2022-11-17T10:14:08.475Z,1.50
2022-11-17T10:16:36.714Z,1.58
2022-11-17T10:19:21.986Z,1.73
2022-11-17T10:22:21.157Z,1.60
2022-11-17T10:24:55.434Z,1.60
2022-11-17T10:27:33.643Z,1.45
2022-11-17T10:30:03.329Z,1.80
2022-11-17T10:32:36.607Z,1.50
2022-11-17T10:35:17.177Z,1.60
2022-11-17T10:37:53.588Z,1.60
2022-11-17T10:40:25.706Z,1.63
2022-11-17T10:43:05.037Z,1.70
2022-11-17T10:45:32.510Z,1.80
2022-11-17T10:48:27.796Z,1.75
2022-11-17T10:51:01.456Z,1.38
2022-11-17T10:53:42.883Z,1.42
2022-11-17T10:56:19.917Z,1.90
2022-11-17T10:58:58.404Z,1.42
2022-11-17T11:01:30.190Z,1.88
2022-11-17T11:03:58.508Z,1.50
2022-11-17T11:06:28.108Z,1.60
2022-11-17T11:08:59.970Z,1.83
2022-11-17T11:11:48.057Z,1.73
2022-11-17T11:14:26.363Z,1.60
2022-11-17T11:16:54.940Z,1.80
2022-11-17T11:19:22.120Z,1.70
2022-11-17T11:22:42.203Z,1.92
2022-11-17T11:25:11.512Z,1.77
2022-11-17T11:27:46.915Z,1.75
2022-11-17T11:30:16.872Z,1.58
2022-11-17T11:33:00.985Z,1.95
2022-11-17T11:35:44.430Z,1.65
2022-11-17T11:38:19.732Z,2.10
2022-11-17T11:40:59.197Z,1.83
2022-11-17T11:43:44.476Z,2.13
2022-11-17T11:46:29.651Z,1.75
2022-11-17T11:49:05.048Z,1.70
2022-11-17T11:51:37.914Z,2.22
2022-11-17T11:54:13.320Z,2.20
2022-11-17T11:56:44.283Z,2.05
2022-11-17T11:59:24.447Z,1.95
2022-11-17T12:02:29.162Z,1.92
2022-11-17T12:05:34.417Z,2.35
2022-11-17T12:08:20.345Z,1.95
2022-11-17T12:11:00.011Z,2.20
2022-11-17T12:13:27.318Z,2.10
2022-11-17T12:16:26.115Z,2.05
2022-11-17T12:18:52.735Z,2.22
2022-11-17T12:21:25.439Z,2.25
2022-11-17T12:24:13.500Z,1.90
2022-11-17T12:26:40.470Z,2.28
2022-11-17T12:29:22.190Z,1.90
2022-11-17T12:31:49.866Z,2.30
2022-11-17T12:34:35.828Z,2.05
2022-11-17T12:37:17.863Z,2.38
2022-11-17T12:40:04.697Z,2.50
2022-11-17T12:42:33.529Z,2.42
2022-11-17T12:45:10.414Z,2.50
2022-11-17T12:47:44.384Z,2.20
2022-11-17T12:50:18.173Z,2.30
2022-11-17T12:53:14.735Z,2.03
2022-11-17T12:56:12.539Z,2.35
2022-11-17T12:58:51.101Z,2.22
2022-11-17T13:01:42.484Z,2.25
2022-11-17T13:04:15.219Z,2.45
2022-11-17T13:07:07.497Z,2.05
2022-11-17T13:09:36.538Z,2.28
2022-11-17T13:12:09.740Z,2.50
2022-11-17T13:14:51.470Z,2.50
2022-11-17T13:17:20.707Z,2.47
2022-11-17T13:19:47.326Z,2.00
2022-11-17T13:22:21.388Z,2.30
2022-11-17T13:24:50.085Z,2.40
2022-11-17T13:27:31.714Z,2.45
2022-11-17T13:30:31.364Z,2.55
2022-11-17T13:33:01.639Z,2.13
2022-11-17T13:35:33.874Z,2.28
2022-11-17T13:38:06.776Z,2.15
2022-11-17T13:40:35.888Z,2.17
2022-11-17T13:43:04.283Z,2.40
2022-11-17T13:45:31.182Z,2.30
2022-11-17T13:47:59.436Z,2.25
2022-11-17T13:50:31.950Z,2.05
2022-11-17T13:53:02.498Z,2.10
2022-11-17T13:55:29.764Z,2.20
2022-11-17T13:58:08.407Z,2.20
2022-11-17T14:00:35.011Z,2.28
2022-11-17T14:03:22.484Z,2.33
2022-11-17T14:05:56.948Z,2.10
2022-11-17T14:08:27.200Z,2.00
2022-11-17T14:11:10.417Z,2.08
2022-11-17T14:13:50.330Z,2.10
2022-11-17T14:16:27.357Z,1.73
2022-11-17T14:19:06.041Z,1.80
2022-11-17T14:21:33.096Z,2.03
2022-11-17T14:24:06.236Z,1.80
2022-11-17T14:26:33.385Z,2.08
2022-11-17T14:29:02.423Z,2.00
2022-11-17T14:31:30.628Z,1.83
2022-11-17T14:33:58.001Z,1.75
2022-11-17T14:36:24.867Z,1.40
2022-11-17T14:38:51.735Z,1.75
2022-11-17T14:41:19.290Z,1.83
2022-11-17T14:43:46.624Z,1.65
2022-11-17T14:46:22.623Z,1.80
2022-11-17T14:48:49.356Z,1.80
2022-11-17T14:51:16.347Z,1.73
2022-11-17T14:53:46.768Z,1.77
2022-11-17T14:56:16.476Z,1.70
2022-11-17T14:58:43.108Z,1.63
2022-11-17T15:01:18.894Z,1.35
2022-11-17T15:03:45.998Z,1.58
2022-11-17T15:06:19.338Z,1.40
2022-11-17T15:08:46.656Z,1.52
2022-11-17T15:11:17.975Z,1.50
2022-11-17T15:13:44.627Z,1.40
2022-11-17T15:16:11.230Z,1.80
2022-11-17T15:18:38.211Z,1.50
2022-11-17T15:21:08.087Z,1.58
2022-11-17T15:23:37.796Z,1.50
2022-11-17T15:26:05.905Z,1.30
2022-11-17T15:28:32.617Z,1.25
2022-11-17T15:30:59.459Z,1.40
2022-11-17T15:33:26.177Z,1.80
2022-11-17T15:36:04.372Z,1.30
2022-11-17T15:38:31.972Z,1.48
2022-11-17T15:40:59.588Z,1.42
2022-11-17T15:43:28.041Z,1.48
2022-11-17T15:46:06.275Z,1.70
2022-11-17T15:48:34.226Z,1.52
2022-11-17T15:51:05.438Z,1.63
2022-11-17T15:53:34.449Z,1.45
2022-11-17T15:56:18.808Z,1.67
2022-11-17T15:58:46.641Z,1.60
2022-11-17T16:01:26.381Z,1.60
2022-11-17T16:03:57.846Z,1.40
2022-11-17T16:06:24.851Z,1.20
2022-11-17T16:08:51.446Z,1.70
2022-11-17T16:11:18.083Z,1.25
2022-11-17T16:13:44.723Z,1.65
2022-11-17T16:16:15.572Z,1.60
2022-11-17T16:18:42.395Z,1.38
2022-11-17T16:21:11.590Z,1.48
2022-11-17T16:23:49.323Z,1.50
2022-11-17T16:26:19.131Z,1.40
2022-11-17T16:28:48.712Z,1.80
2022-11-17T16:31:18.427Z,1.80
2022-11-17T16:33:49.550Z,1.30
2022-11-17T16:36:21.547Z,1.48
2022-11-17T16:39:00.929Z,1.40
2022-11-17T16:41:32.170Z,1.70
2022-11-17T16:43:59.546Z,1.40
2022-11-17T16:46:31.081Z,1.60
2022-11-17T16:49:03.083Z,1.60
2022-11-17T16:51:30.036Z,1.42
2022-11-17T16:53:59.232Z,1.60
2022-11-17T16:56:26.306Z,1.48
2022-11-17T16:58:53.390Z,1.52
2022-11-17T17:01:22.636Z,1.48
2022-11-17T17:03:49.235Z,1.70
2022-11-17T17:06:17.840Z,1.77
2022-11-17T17:08:44.808Z,1.52
2022-11-17T17:11:15.677Z,1.70
2022-11-17T17:13:43.200Z,1.50
2022-11-17T17:16:15.309Z,1.90
2022-11-17T17:18:42.669Z,1.40
2022-11-17T17:21:15.521Z,1.70
2022-11-17T17:23:42.449Z,1.90
2022-11-17T17:26:19.687Z,2.03
2022-11-17T17:28:48.425Z,1.77
2022-11-17T17:31:21.344Z,1.55
2022-11-17T17:33:50.329Z,1.80
2022-11-17T17:36:19.970Z,1.60
2022-11-17T17:38:53.383Z,1.90
2022-11-17T17:41:22.530Z,1.67
2022-11-17T17:43:58.646Z,1.80
2022-11-17T17:46:26.319Z,1.70
2022-11-17T17:48:53.172Z,1.70
2022-11-17T17:51:21.487Z,1.60
2022-11-17T17:53:50.189Z,1.83
2022-11-17T17:56:19.608Z,1.90
2022-11-17T17:58:48.803Z,1.88
2022-11-17T18:01:21.360Z,1.60
2022-11-17T18:03:49.844Z,1.80
2022-11-17T18:06:18.993Z,1.60
2022-11-17T18:08:45.923Z,1.73
2022-11-17T18:11:17.041Z,2.00
2022-11-17T18:13:44.887Z,1.80
2022-11-17T18:16:14.613Z,1.50
2022-11-17T18:18:42.091Z,1.80
2022-11-17T18:21:11.149Z,1.52
2022-11-17T18:23:38.384Z,1.77
2022-11-17T18:26:16.236Z,1.75
2022-11-17T18:28:44.794Z,2.00
2022-11-17T18:31:11.835Z,1.80
2022-11-17T18:33:38.476Z,2.05
2022-11-17T18:36:07.324Z,2.00
2022-11-17T18:38:35.855Z,2.00
2022-11-17T18:41:08.375Z,1.80
2022-11-17T18:43:36.146Z,1.90
2022-11-17T18:46:05.423Z,1.90
2022-11-17T18:48:33.092Z,1.80
2022-11-17T18:51:18.683Z,1.73
2022-11-17T18:53:46.933Z,1.80
2022-11-17T18:56:15.618Z,1.70
2022-11-17T18:58:43.287Z,1.80
2022-11-17T19:01:21.422Z,1.80
2022-11-17T19:03:50.496Z,1.70
2022-11-17T19:06:18.282Z,1.80
2022-11-17T19:08:45.600Z,2.10
2022-11-17T19:11:12.557Z,2.03
2022-11-17T19:13:40.960Z,1.80
2022-11-17T19:16:13.644Z,1.77
2022-11-17T19:18:40.811Z,1.83
2022-11-17T19:21:12.880Z,1.95
2022-11-17T19:23:41.940Z,1.70
2022-11-17T19:26:30.455Z,1.83
2022-11-17T19:28:59.060Z,1.70
2022-11-17T19:31:26.115Z,1.73
2022-11-17T19:33:54.233Z,1.77
2022-11-17T19:36:23.815Z,1.65
2022-11-17T19:38:51.773Z,1.70
2022-11-17T19:41:21.131Z,1.60
2022-11-17T19:43:48.186Z,1.90
2022-11-17T19:46:16.530Z,2.20
2022-11-17T19:48:44.266Z,1.70
2022-11-17T19:51:19.785Z,1.60
2022-11-17T19:53:47.854Z,1.90
2022-11-17T19:56:14.824Z,1.85
2022-11-17T19:58:41.557Z,1.77
2022-11-17T20:01:13.846Z,1.90
2022-11-17T20:03:41.305Z,1.75
2022-11-17T20:06:09.889Z,1.90
2022-11-17T20:08:36.874Z,2.25
2022-11-17T20:11:09.265Z,1.80
2022-11-17T20:13:36.679Z,1.85
2022-11-17T20:16:10.365Z,1.73
2022-11-17T20:18:38.474Z,1.83
2022-11-17T20:21:06.568Z,1.80
2022-11-17T20:23:37.111Z,1.90
2022-11-17T20:26:08.981Z,1.70
2022-11-17T20:28:37.430Z,1.90
2022-11-17T20:31:13.986Z,1.70
2022-11-17T20:33:42.267Z,1.77
2022-11-17T20:36:15.331Z,2.00
2022-11-17T20:38:42.206Z,2.05
2022-11-17T20:41:09.056Z,1.98
2022-11-17T20:43:35.955Z,1.92
2022-11-17T20:46:03.782Z,1.70
2022-11-17T20:48:32.313Z,1.75
2022-11-17T20:51:05.175Z,1.63
2022-11-17T20:53:32.498Z,1.73
2022-11-17T20:56:00.806Z,1.75
2022-11-17T20:58:28.612Z,1.80
2022-11-17T21:00:55.969Z,2.03
2022-11-17T21:03:23.739Z,1.45
2022-11-17T21:05:59.103Z,1.90
2022-11-17T21:08:27.754Z,1.65
2022-11-17T21:11:02.045Z,2.35
2022-11-17T21:13:30.540Z,1.92
2022-11-17T21:16:09.834Z,1.73
2022-11-17T21:18:37.798Z,2.00
2022-11-17T21:21:08.775Z,2.10
2022-11-17T21:23:37.419Z,2.00
2022-11-17T21:26:09.388Z,1.90
2022-11-17T21:28:37.383Z,2.10
2022-11-17T21:31:14.607Z,2.08
2022-11-17T21:33:42.125Z,2.13
2022-11-17T21:36:11.226Z,1.80
2022-11-17T21:38:38.415Z,2.00
2022-11-17T21:41:07.444Z,1.85
2022-11-17T21:43:36.548Z,2.15
2022-11-17T21:46:06.815Z,1.90
2022-11-17T21:48:36.546Z,1.98
2022-11-17T21:51:04.553Z,1.98
2022-11-17T21:53:31.217Z,2.10
2022-11-17T21:56:05.460Z,2.20
2022-11-17T21:58:32.378Z,1.85
2022-11-17T22:00:59.424Z,1.95
2022-11-17T22:03:26.172Z,1.90
2022-11-17T22:05:55.728Z,1.90
2022-11-17T22:08:24.671Z,1.73
2022-11-17T22:10:51.221Z,2.25
2022-11-17T22:13:17.779Z,2.00
2022-11-17T22:15:44.357Z,2.35
2022-11-17T22:18:10.945Z,2.15
2022-11-17T22:20:37.690Z,2.20
2022-11-17T22:23:04.239Z,2.28
2022-11-17T22:25:44.831Z,2.17
2022-11-17T22:28:12.032Z,2.20
2022-11-17T22:30:39.333Z,2.17
2022-11-17T22:33:05.890Z,2.30
2022-11-17T22:35:32.496Z,1.90
2022-11-17T22:37:59.074Z,1.95
2022-11-17T22:40:25.647Z,2.28
2022-11-17T22:42:52.739Z,2.40
2022-11-17T22:45:19.530Z,2.50
2022-11-17T22:47:46.280Z,2.22
2022-11-17T22:50:12.973Z,2.38
2022-11-17T22:52:39.538Z,2.55
2022-11-17T22:55:06.409Z,2.15
2022-11-17T22:57:32.962Z,2.33
2022-11-17T22:59:59.598Z,2.22
2022-11-17T23:02:26.177Z,2.33
2022-11-17T23:04:52.740Z,2.22
2022-11-17T23:07:19.375Z,2.35
2022-11-17T23:09:46.004Z,2.72
2022-11-17T23:12:12.845Z,2.30
2022-11-17T23:14:39.421Z,2.53
2022-11-17T23:17:06.050Z,2.42
2022-11-17T23:19:32.643Z,2.50
2022-11-17T23:21:59.218Z,2.70
2022-11-17T23:24:25.792Z,2.60
2022-11-17T23:26:52.382Z,2.75
2022-11-17T23:29:19.258Z,2.72
2022-11-17T23:31:46.073Z,2.85
2022-11-17T23:34:12.663Z,2.30
2022-11-17T23:36:39.826Z,2.72
2022-11-17T23:39:06.650Z,2.50
2022-11-17T23:41:33.230Z,2.47
2022-11-17T23:43:59.845Z,2.60
2022-11-17T23:46:27.282Z,2.70
2022-11-17T23:48:55.147Z,2.75
2022-11-17T23:51:23.536Z,2.95
2022-11-17T23:53:50.235Z,2.60
2022-11-17T23:56:18.934Z,2.70
2022-11-17T23:58:45.491Z,2.50
